sensor_id;sensor_type;location;lat;lon;timestamp;temperature;humidity
29663;DHT22;16578;53.266;7.920;2023-03-23T00:01:23;14.60;80.80
29663;DHT22;16578;53.266;7.920;2023-03-23T00:03:53;14.60;80.80
29663;DHT22;16578;53.266;7.920;2023-03-23T00:06:23;14.70;80.90
29663;DHT22;16578;53.266;7.920;2023-03-23T00:08:50;14.60;80.90
29663;DHT22;16578;53.266;7.920;2023-03-23T00:11:23;14.70;80.80
29663;DHT22;16578;53.266;7.920;2023-03-23T00:13:52;14.70;80.90
29663;DHT22;16578;53.266;7.920;2023-03-23T00:16:20;14.70;80.80
29663;DHT22;16578;53.266;7.920;2023-03-23T00:18:47;14.70;80.80
29663;DHT22;16578;53.266;7.920;2023-03-23T00:21:13;14.70;80.80
29663;DHT22;16578;53.266;7.920;2023-03-23T00:23:39;14.70;80.80
29663;DHT22;16578;53.266;7.920;2023-03-23T00:26:05;14.70;80.90
29663;DHT22;16578;53.266;7.920;2023-03-23T00:28:31;14.70;80.80
29663;DHT22;16578;53.266;7.920;2023-03-23T00:30:57;14.70;80.90
29663;DHT22;16578;53.266;7.920;2023-03-23T00:33:26;14.70;80.90
29663;DHT22;16578;53.266;7.920;2023-03-23T00:35:51;14.70;80.80
29663;DHT22;16578;53.266;7.920;2023-03-23T00:38:19;14.70;80.90
29663;DHT22;16578;53.266;7.920;2023-03-23T00:40:45;14.80;81.00
29663;DHT22;16578;53.266;7.920;2023-03-23T00:43:16;14.80;81.00
29663;DHT22;16578;53.266;7.920;2023-03-23T00:45:43;14.70;80.90
29663;DHT22;16578;53.266;7.920;2023-03-23T00:48:22;14.70;80.90
29663;DHT22;16578;53.266;7.920;2023-03-23T00:50:49;14.70;81.00
29663;DHT22;16578;53.266;7.920;2023-03-23T00:53:16;14.80;81.00
29663;DHT22;16578;53.266;7.920;2023-03-23T00:55:46;14.80;81.10
29663;DHT22;16578;53.266;7.920;2023-03-23T00:58:13;14.80;81.00
29663;DHT22;16578;53.266;7.920;2023-03-23T01:00:39;14.80;81.00
29663;DHT22;16578;53.266;7.920;2023-03-23T01:03:06;14.80;81.00
29663;DHT22;16578;53.266;7.920;2023-03-23T01:05:36;14.80;81.00
29663;DHT22;16578;53.266;7.920;2023-03-23T01:08:03;14.80;80.90
29663;DHT22;16578;53.266;7.920;2023-03-23T01:10:29;14.80;80.90
29663;DHT22;16578;53.266;7.920;2023-03-23T01:12:58;14.80;80.90
29663;DHT22;16578;53.266;7.920;2023-03-23T01:15:25;14.80;80.90
29663;DHT22;16578;53.266;7.920;2023-03-23T01:17:50;14.90;80.90
29663;DHT22;16578;53.266;7.920;2023-03-23T01:20:16;14.90;80.90
29663;DHT22;16578;53.266;7.920;2023-03-23T01:22:42;14.90;80.90
29663;DHT22;16578;53.266;7.920;2023-03-23T01:25:09;14.90;80.80
29663;DHT22;16578;53.266;7.920;2023-03-23T01:27:36;14.90;80.70
29663;DHT22;16578;53.266;7.920;2023-03-23T01:30:02;14.80;80.80
29663;DHT22;16578;53.266;7.920;2023-03-23T01:32:28;14.90;80.80
29663;DHT22;16578;53.266;7.920;2023-03-23T01:34:54;14.90;80.70
29663;DHT22;16578;53.266;7.920;2023-03-23T01:37:20;14.90;80.70
29663;DHT22;16578;53.266;7.920;2023-03-23T01:39:45;14.90;80.70
29663;DHT22;16578;53.266;7.920;2023-03-23T01:42:11;14.90;80.70
29663;DHT22;16578;53.266;7.920;2023-03-23T01:47:03;14.90;80.60
29663;DHT22;16578;53.266;7.920;2023-03-23T01:49:35;14.90;80.50
29663;DHT22;16578;53.266;7.920;2023-03-23T01:52:07;14.90;80.40
29663;DHT22;16578;53.266;7.920;2023-03-23T01:54:36;14.90;80.50
29663;DHT22;16578;53.266;7.920;2023-03-23T01:57:09;14.90;80.40
29663;DHT22;16578;53.266;7.920;2023-03-23T01:59:36;14.90;80.40
29663;DHT22;16578;53.266;7.920;2023-03-23T02:02:02;14.90;80.40
29663;DHT22;16578;53.266;7.920;2023-03-23T02:04:30;14.90;80.30
29663;DHT22;16578;53.266;7.920;2023-03-23T02:06:56;14.90;80.40
29663;DHT22;16578;53.266;7.920;2023-03-23T02:09:25;14.90;80.30
29663;DHT22;16578;53.266;7.920;2023-03-23T02:11:51;14.90;80.30
29663;DHT22;16578;53.266;7.920;2023-03-23T02:14:18;14.90;80.20
29663;DHT22;16578;53.266;7.920;2023-03-23T02:28:30;14.80;80.00
29663;DHT22;16578;53.266;7.920;2023-03-23T02:34:02;14.80;79.80
29663;DHT22;16578;53.266;7.920;2023-03-23T02:36:51;14.80;79.80
29663;DHT22;16578;53.266;7.920;2023-03-23T02:39:33;14.80;79.70
29663;DHT22;16578;53.266;7.920;2023-03-23T02:42:10;14.80;79.70
29663;DHT22;16578;53.266;7.920;2023-03-23T02:44:40;14.80;79.70
29663;DHT22;16578;53.266;7.920;2023-03-23T02:47:11;14.80;79.70
29663;DHT22;16578;53.266;7.920;2023-03-23T02:49:38;14.80;79.70
29663;DHT22;16578;53.266;7.920;2023-03-23T02:52:09;14.80;79.60
29663;DHT22;16578;53.266;7.920;2023-03-23T02:54:38;14.80;79.60
29663;DHT22;16578;53.266;7.920;2023-03-23T02:57:04;14.70;79.60
29663;DHT22;16578;53.266;7.920;2023-03-23T02:59:30;14.70;79.60
29663;DHT22;16578;53.266;7.920;2023-03-23T03:02:07;14.70;79.70
29663;DHT22;16578;53.266;7.920;2023-03-23T03:04:36;14.70;79.70
29663;DHT22;16578;53.266;7.920;2023-03-23T03:07:23;14.70;79.70
29663;DHT22;16578;53.266;7.920;2023-03-23T03:10:06;14.70;79.60
29663;DHT22;16578;53.266;7.920;2023-03-23T03:13:08;14.70;79.60
29663;DHT22;16578;53.266;7.920;2023-03-23T03:15:41;14.70;80.50
29663;DHT22;16578;53.266;7.920;2023-03-23T03:18:20;14.70;79.60
29663;DHT22;16578;53.266;7.920;2023-03-23T03:20:51;14.70;79.60
29663;DHT22;16578;53.266;7.920;2023-03-23T03:23:21;14.70;79.50
29663;DHT22;16578;53.266;7.920;2023-03-23T03:25:47;14.70;79.60
29663;DHT22;16578;53.266;7.920;2023-03-23T03:28:19;14.70;79.80
29663;DHT22;16578;53.266;7.920;2023-03-23T03:30:49;14.70;79.50
29663;DHT22;16578;53.266;7.920;2023-03-23T03:33:17;14.70;79.30
29663;DHT22;16578;53.266;7.920;2023-03-23T03:35:43;14.70;79.40
29663;DHT22;16578;53.266;7.920;2023-03-23T03:38:11;14.70;79.40
29663;DHT22;16578;53.266;7.920;2023-03-23T03:40:36;14.70;79.40
29663;DHT22;16578;53.266;7.920;2023-03-23T03:43:03;14.70;79.40
29663;DHT22;16578;53.266;7.920;2023-03-23T03:45:28;14.80;80.20
29663;DHT22;16578;53.266;7.920;2023-03-23T03:47:54;14.70;79.20
29663;DHT22;16578;53.266;7.920;2023-03-23T03:50:20;14.70;79.20
29663;DHT22;16578;53.266;7.920;2023-03-23T03:52:45;14.80;79.20
29663;DHT22;16578;53.266;7.920;2023-03-23T03:55:11;14.80;79.20
29663;DHT22;16578;53.266;7.920;2023-03-23T03:57:37;14.80;79.20
29663;DHT22;16578;53.266;7.920;2023-03-23T04:00:05;14.80;79.20
29663;DHT22;16578;53.266;7.920;2023-03-23T04:02:40;14.80;79.10
29663;DHT22;16578;53.266;7.920;2023-03-23T04:05:06;14.80;79.00
29663;DHT22;16578;53.266;7.920;2023-03-23T04:07:32;14.80;78.90
29663;DHT22;16578;53.266;7.920;2023-03-23T04:09:57;14.80;78.80
29663;DHT22;16578;53.266;7.920;2023-03-23T04:12:23;14.80;78.80
29663;DHT22;16578;53.266;7.920;2023-03-23T04:14:49;14.80;78.70
29663;DHT22;16578;53.266;7.920;2023-03-23T04:17:15;14.70;78.60
29663;DHT22;16578;53.266;7.920;2023-03-23T04:19:42;14.80;78.70
29663;DHT22;16578;53.266;7.920;2023-03-23T04:22:07;14.80;78.70
29663;DHT22;16578;53.266;7.920;2023-03-23T04:24:33;14.80;78.70
29663;DHT22;16578;53.266;7.920;2023-03-23T04:26:59;14.80;78.60
29663;DHT22;16578;53.266;7.920;2023-03-23T04:29:25;14.80;78.60
29663;DHT22;16578;53.266;7.920;2023-03-23T04:31:52;14.80;78.60
29663;DHT22;16578;53.266;7.920;2023-03-23T04:34:18;14.70;78.50
29663;DHT22;16578;53.266;7.920;2023-03-23T04:36:44;14.80;78.60
29663;DHT22;16578;53.266;7.920;2023-03-23T04:39:11;14.80;78.50
29663;DHT22;16578;53.266;7.920;2023-03-23T04:41:37;14.80;78.50
29663;DHT22;16578;53.266;7.920;2023-03-23T04:44:03;14.80;78.50
29663;DHT22;16578;53.266;7.920;2023-03-23T04:46:29;14.80;78.40
29663;DHT22;16578;53.266;7.920;2023-03-23T04:48:55;14.80;78.40
29663;DHT22;16578;53.266;7.920;2023-03-23T04:51:24;14.80;78.30
29663;DHT22;16578;53.266;7.920;2023-03-23T04:53:49;14.80;78.20
29663;DHT22;16578;53.266;7.920;2023-03-23T04:56:15;14.80;78.20
29663;DHT22;16578;53.266;7.920;2023-03-23T04:58:41;14.80;78.20
29663;DHT22;16578;53.266;7.920;2023-03-23T05:01:09;14.80;78.10
29663;DHT22;16578;53.266;7.920;2023-03-23T05:03:34;14.80;78.10
29663;DHT22;16578;53.266;7.920;2023-03-23T05:06:02;14.80;78.10
29663;DHT22;16578;53.266;7.920;2023-03-23T05:08:27;14.90;78.00
29663;DHT22;16578;53.266;7.920;2023-03-23T05:10:55;14.90;78.00
29663;DHT22;16578;53.266;7.920;2023-03-23T05:13:21;14.90;77.90
29663;DHT22;16578;53.266;7.920;2023-03-23T05:15:47;14.90;77.80
29663;DHT22;16578;53.266;7.920;2023-03-23T05:18:14;14.90;77.70
29663;DHT22;16578;53.266;7.920;2023-03-23T05:20:40;14.90;77.60
29663;DHT22;16578;53.266;7.920;2023-03-23T05:23:07;14.90;77.60
29663;DHT22;16578;53.266;7.920;2023-03-23T05:25:33;14.80;77.50
29663;DHT22;16578;53.266;7.920;2023-03-23T05:28:02;14.80;77.50
29663;DHT22;16578;53.266;7.920;2023-03-23T05:30:28;14.90;77.70
29663;DHT22;16578;53.266;7.920;2023-03-23T05:32:55;14.80;77.60
29663;DHT22;16578;53.266;7.920;2023-03-23T05:35:20;14.80;77.60
29663;DHT22;16578;53.266;7.920;2023-03-23T05:37:46;14.90;77.70
29663;DHT22;16578;53.266;7.920;2023-03-23T05:40:12;14.90;77.70
29663;DHT22;16578;53.266;7.920;2023-03-23T05:42:39;14.90;77.70
29663;DHT22;16578;53.266;7.920;2023-03-23T05:45:11;14.90;77.70
29663;DHT22;16578;53.266;7.920;2023-03-23T05:47:38;14.90;77.70
29663;DHT22;16578;53.266;7.920;2023-03-23T05:50:05;14.90;77.70
29663;DHT22;16578;53.266;7.920;2023-03-23T05:52:32;14.90;77.70
29663;DHT22;16578;53.266;7.920;2023-03-23T05:54:58;14.90;77.90
29663;DHT22;16578;53.266;7.920;2023-03-23T05:57:24;15.00;77.90
29663;DHT22;16578;53.266;7.920;2023-03-23T05:59:49;15.00;78.00
29663;DHT22;16578;53.266;7.920;2023-03-23T06:02:15;15.00;77.80
29663;DHT22;16578;53.266;7.920;2023-03-23T06:04:41;15.00;77.00
29663;DHT22;16578;53.266;7.920;2023-03-23T06:07:08;14.90;76.10
29663;DHT22;16578;53.266;7.920;2023-03-23T06:09:38;14.80;76.00
29663;DHT22;16578;53.266;7.920;2023-03-23T06:12:03;14.70;76.10
29663;DHT22;16578;53.266;7.920;2023-03-23T06:14:29;14.50;76.30
29663;DHT22;16578;53.266;7.920;2023-03-23T06:16:55;14.40;76.60
29663;DHT22;16578;53.266;7.920;2023-03-23T06:19:21;14.30;76.90
29663;DHT22;16578;53.266;7.920;2023-03-23T06:21:48;14.30;77.30
29663;DHT22;16578;53.266;7.920;2023-03-23T06:24:14;14.20;77.60
29663;DHT22;16578;53.266;7.920;2023-03-23T06:26:40;14.20;78.70
29663;DHT22;16578;53.266;7.920;2023-03-23T06:29:10;14.20;78.10
29663;DHT22;16578;53.266;7.920;2023-03-23T06:31:39;14.10;78.20
29663;DHT22;16578;53.266;7.920;2023-03-23T06:34:05;14.00;78.80
29663;DHT22;16578;53.266;7.920;2023-03-23T06:36:31;14.10;78.60
29663;DHT22;16578;53.266;7.920;2023-03-23T06:38:57;14.10;78.80
29663;DHT22;16578;53.266;7.920;2023-03-23T06:41:22;14.10;79.00
29663;DHT22;16578;53.266;7.920;2023-03-23T06:43:48;14.10;79.20
29663;DHT22;16578;53.266;7.920;2023-03-23T06:46:13;14.10;79.30
29663;DHT22;16578;53.266;7.920;2023-03-23T06:48:39;14.20;79.50
29663;DHT22;16578;53.266;7.920;2023-03-23T06:51:05;14.20;79.60
29663;DHT22;16578;53.266;7.920;2023-03-23T06:53:31;14.20;79.50
29663;DHT22;16578;53.266;7.920;2023-03-23T06:55:56;14.30;79.60
29663;DHT22;16578;53.266;7.920;2023-03-23T06:58:22;14.30;79.60
29663;DHT22;16578;53.266;7.920;2023-03-23T07:00:53;14.30;79.60
29663;DHT22;16578;53.266;7.920;2023-03-23T07:03:19;14.40;79.50
29663;DHT22;16578;53.266;7.920;2023-03-23T07:05:46;14.40;79.50
29663;DHT22;16578;53.266;7.920;2023-03-23T07:08:12;14.40;79.50
29663;DHT22;16578;53.266;7.920;2023-03-23T07:10:38;14.50;79.50
29663;DHT22;16578;53.266;7.920;2023-03-23T07:13:04;14.50;79.60
29663;DHT22;16578;53.266;7.920;2023-03-23T07:15:29;14.50;79.60
29663;DHT22;16578;53.266;7.920;2023-03-23T07:17:56;14.60;79.60
29663;DHT22;16578;53.266;7.920;2023-03-23T07:20:21;14.60;79.50
29663;DHT22;16578;53.266;7.920;2023-03-23T07:22:47;14.60;79.50
29663;DHT22;16578;53.266;7.920;2023-03-23T07:25:12;14.70;79.50
29663;DHT22;16578;53.266;7.920;2023-03-23T07:27:38;14.60;79.30
29663;DHT22;16578;53.266;7.920;2023-03-23T07:30:05;14.70;79.20
29663;DHT22;16578;53.266;7.920;2023-03-23T07:32:30;14.70;79.00
29663;DHT22;16578;53.266;7.920;2023-03-23T07:34:56;14.70;78.90
29663;DHT22;16578;53.266;7.920;2023-03-23T07:37:22;14.80;78.90
29663;DHT22;16578;53.266;7.920;2023-03-23T07:39:48;14.70;78.70
29663;DHT22;16578;53.266;7.920;2023-03-23T07:42:13;14.80;78.70
29663;DHT22;16578;53.266;7.920;2023-03-23T07:44:39;14.80;78.80
29663;DHT22;16578;53.266;7.920;2023-03-23T07:47:04;14.80;78.90
29663;DHT22;16578;53.266;7.920;2023-03-23T07:49:30;14.80;78.80
29663;DHT22;16578;53.266;7.920;2023-03-23T07:51:56;14.80;78.80
29663;DHT22;16578;53.266;7.920;2023-03-23T07:54:23;14.90;78.90
29663;DHT22;16578;53.266;7.920;2023-03-23T07:56:48;14.90;78.80
29663;DHT22;16578;53.266;7.920;2023-03-23T07:59:14;15.00;78.80
29663;DHT22;16578;53.266;7.920;2023-03-23T08:01:40;15.00;78.50
29663;DHT22;16578;53.266;7.920;2023-03-23T08:04:06;15.00;78.30
29663;DHT22;16578;53.266;7.920;2023-03-23T08:06:33;15.00;78.00
29663;DHT22;16578;53.266;7.920;2023-03-23T08:08:59;15.10;77.90
29663;DHT22;16578;53.266;7.920;2023-03-23T08:11:26;15.10;77.70
29663;DHT22;16578;53.266;7.920;2023-03-23T08:13:52;15.10;77.60
29663;DHT22;16578;53.266;7.920;2023-03-23T08:16:18;15.10;77.70
29663;DHT22;16578;53.266;7.920;2023-03-23T08:18:45;15.10;78.70
29663;DHT22;16578;53.266;7.920;2023-03-23T08:21:11;15.10;77.70
29663;DHT22;16578;53.266;7.920;2023-03-23T08:23:38;15.10;77.50
29663;DHT22;16578;53.266;7.920;2023-03-23T08:26:06;15.10;77.50
29663;DHT22;16578;53.266;7.920;2023-03-23T08:28:34;15.20;77.40
29663;DHT22;16578;53.266;7.920;2023-03-23T08:31:05;15.20;77.40
29663;DHT22;16578;53.266;7.920;2023-03-23T08:33:32;15.20;77.50
29663;DHT22;16578;53.266;7.920;2023-03-23T08:35:59;15.20;77.20
29663;DHT22;16578;53.266;7.920;2023-03-23T08:38:25;15.20;77.20
29663;DHT22;16578;53.266;7.920;2023-03-23T08:40:51;15.30;77.50
29663;DHT22;16578;53.266;7.920;2023-03-23T08:43:17;15.30;77.50
29663;DHT22;16578;53.266;7.920;2023-03-23T08:45:43;15.40;77.60
29663;DHT22;16578;53.266;7.920;2023-03-23T08:48:09;15.50;78.40
29663;DHT22;16578;53.266;7.920;2023-03-23T08:50:34;15.60;77.50
29663;DHT22;16578;53.266;7.920;2023-03-23T08:53:00;15.60;77.30
29663;DHT22;16578;53.266;7.920;2023-03-23T08:55:26;15.70;77.10
29663;DHT22;16578;53.266;7.920;2023-03-23T08:57:52;15.70;76.90
29663;DHT22;16578;53.266;7.920;2023-03-23T09:00:20;15.80;76.70
29663;DHT22;16578;53.266;7.920;2023-03-23T09:02:48;15.80;76.30
29663;DHT22;16578;53.266;7.920;2023-03-23T09:05:15;15.90;76.20
29663;DHT22;16578;53.266;7.920;2023-03-23T09:07:48;15.90;76.00
29663;DHT22;16578;53.266;7.920;2023-03-23T09:10:14;15.90;75.70
29663;DHT22;16578;53.266;7.920;2023-03-23T09:12:42;15.90;76.50
29663;DHT22;16578;53.266;7.920;2023-03-23T09:15:09;16.00;76.60
29663;DHT22;16578;53.266;7.920;2023-03-23T09:17:40;16.00;75.60
29663;DHT22;16578;53.266;7.920;2023-03-23T09:20:08;16.00;75.40
29663;DHT22;16578;53.266;7.920;2023-03-23T09:22:36;16.10;75.10
29663;DHT22;16578;53.266;7.920;2023-03-23T09:25:04;16.10;74.90
29663;DHT22;16578;53.266;7.920;2023-03-23T09:27:29;16.10;74.30
29663;DHT22;16578;53.266;7.920;2023-03-23T09:29:55;16.20;73.90
29663;DHT22;16578;53.266;7.920;2023-03-23T09:32:21;16.20;73.60
29663;DHT22;16578;53.266;7.920;2023-03-23T09:34:48;16.20;73.40
29663;DHT22;16578;53.266;7.920;2023-03-23T09:37:13;16.20;73.30
29663;DHT22;16578;53.266;7.920;2023-03-23T09:39:39;16.20;72.90
29663;DHT22;16578;53.266;7.920;2023-03-23T09:47:45;16.20;72.60
29663;DHT22;16578;53.266;7.920;2023-03-23T09:50:13;16.20;72.30
29663;DHT22;16578;53.266;7.920;2023-03-23T09:52:58;16.20;72.90
29663;DHT22;16578;53.266;7.920;2023-03-23T09:55:24;16.20;72.40
29663;DHT22;16578;53.266;7.920;2023-03-23T09:58:12;16.30;72.90
29663;DHT22;16578;53.266;7.920;2023-03-23T10:00:55;16.30;72.40
29663;DHT22;16578;53.266;7.920;2023-03-23T10:03:29;16.30;73.00
29663;DHT22;16578;53.266;7.920;2023-03-23T10:05:56;16.40;72.10
29663;DHT22;16578;53.266;7.920;2023-03-23T10:08:24;16.40;71.60
29663;DHT22;16578;53.266;7.920;2023-03-23T10:11:12;16.50;70.90
29663;DHT22;16578;53.266;7.920;2023-03-23T10:13:52;16.50;70.40
29663;DHT22;16578;53.266;7.920;2023-03-23T10:16:34;16.50;70.50
29663;DHT22;16578;53.266;7.920;2023-03-23T10:21:28;16.50;70.50
29663;DHT22;16578;53.266;7.920;2023-03-23T10:23:59;16.50;70.10
29663;DHT22;16578;53.266;7.920;2023-03-23T10:29:08;16.40;70.00
29663;DHT22;16578;53.266;7.920;2023-03-23T10:31:42;16.50;70.40
29663;DHT22;16578;53.266;7.920;2023-03-23T10:34:17;16.50;70.60
29663;DHT22;16578;53.266;7.920;2023-03-23T10:39:41;16.50;70.00
29663;DHT22;16578;53.266;7.920;2023-03-23T10:42:09;16.50;70.40
29663;DHT22;16578;53.266;7.920;2023-03-23T10:44:36;16.50;70.60
29663;DHT22;16578;53.266;7.920;2023-03-23T10:47:07;16.60;70.60
29663;DHT22;16578;53.266;7.920;2023-03-23T10:49:52;16.60;70.40
29663;DHT22;16578;53.266;7.920;2023-03-23T10:52:32;16.60;70.20
29663;DHT22;16578;53.266;7.920;2023-03-23T10:55:08;16.60;70.30
29663;DHT22;16578;53.266;7.920;2023-03-23T10:57:37;16.60;70.60
29663;DHT22;16578;53.266;7.920;2023-03-23T11:00:04;16.60;70.90
29663;DHT22;16578;53.266;7.920;2023-03-23T11:02:37;16.50;71.30
29663;DHT22;16578;53.266;7.920;2023-03-23T11:05:16;16.60;71.40
29663;DHT22;16578;53.266;7.920;2023-03-23T11:07:55;16.60;71.00
29663;DHT22;16578;53.266;7.920;2023-03-23T11:10:27;16.60;70.80
29663;DHT22;16578;53.266;7.920;2023-03-23T11:12:57;16.60;71.00
29663;DHT22;16578;53.266;7.920;2023-03-23T11:15:53;16.60;71.10
29663;DHT22;16578;53.266;7.920;2023-03-23T11:18:33;16.50;70.70
29663;DHT22;16578;53.266;7.920;2023-03-23T11:21:02;16.50;71.10
29663;DHT22;16578;53.266;7.920;2023-03-23T11:23:41;16.40;71.50
29663;DHT22;16578;53.266;7.920;2023-03-23T11:26:24;16.40;71.90
29663;DHT22;16578;53.266;7.920;2023-03-23T11:31:41;16.40;71.50
29663;DHT22;16578;53.266;7.920;2023-03-23T11:34:18;16.30;71.60
29663;DHT22;16578;53.266;7.920;2023-03-23T11:36:49;16.30;71.70
29663;DHT22;16578;53.266;7.920;2023-03-23T11:39:33;16.30;71.90
29663;DHT22;16578;53.266;7.920;2023-03-23T11:42:11;16.30;72.20
29663;DHT22;16578;53.266;7.920;2023-03-23T11:44:42;16.20;72.60
29663;DHT22;16578;53.266;7.920;2023-03-23T11:47:36;16.30;72.80
29663;DHT22;16578;53.266;7.920;2023-03-23T11:50:14;16.30;72.80
29663;DHT22;16578;53.266;7.920;2023-03-23T11:53:10;16.40;72.90
29663;DHT22;16578;53.266;7.920;2023-03-23T11:58:16;16.50;72.30
29663;DHT22;16578;53.266;7.920;2023-03-23T12:00:57;16.50;71.50
29663;DHT22;16578;53.266;7.920;2023-03-23T12:06:54;16.50;70.40
29663;DHT22;16578;53.266;7.920;2023-03-23T12:09:47;16.50;70.40
29663;DHT22;16578;53.266;7.920;2023-03-23T12:12:33;16.50;70.60
29663;DHT22;16578;53.266;7.920;2023-03-23T12:36:12;17.00;70.40
29663;DHT22;16578;53.266;7.920;2023-03-23T12:39:14;17.00;70.30
29663;DHT22;16578;53.266;7.920;2023-03-23T12:41:52;17.10;69.80
29663;DHT22;16578;53.266;7.920;2023-03-23T12:44:35;17.00;70.60
29663;DHT22;16578;53.266;7.920;2023-03-23T12:47:14;17.20;69.90
29663;DHT22;16578;53.266;7.920;2023-03-23T12:49:54;17.30;69.70
29663;DHT22;16578;53.266;7.920;2023-03-23T12:52:37;17.30;69.00
29663;DHT22;16578;53.266;7.920;2023-03-23T12:56:06;17.40;68.60
29663;DHT22;16578;53.266;7.920;2023-03-23T12:58:07;17.50;68.20
29663;DHT22;16578;53.266;7.920;2023-03-23T13:00:34;17.50;67.70
29663;DHT22;16578;53.266;7.920;2023-03-23T13:06:19;17.70;67.10
29663;DHT22;16578;53.266;7.920;2023-03-23T13:08:54;17.70;67.10
29663;DHT22;16578;53.266;7.920;2023-03-23T13:11:29;17.80;67.30
29663;DHT22;16578;53.266;7.920;2023-03-23T13:14:03;17.90;66.80
29663;DHT22;16578;53.266;7.920;2023-03-23T13:25:38;18.10;64.30
29663;DHT22;16578;53.266;7.920;2023-03-23T13:28:20;18.10;64.20
29663;DHT22;16578;53.266;7.920;2023-03-23T13:33:30;18.20;63.00
29663;DHT22;16578;53.266;7.920;2023-03-23T13:35:57;18.20;63.40
29663;DHT22;16578;53.266;7.920;2023-03-23T13:38:30;18.20;62.90
29663;DHT22;16578;53.266;7.920;2023-03-23T13:40:56;18.20;62.50
29663;DHT22;16578;53.266;7.920;2023-03-23T13:43:33;18.20;62.40
29663;DHT22;16578;53.266;7.920;2023-03-23T13:46:13;18.20;62.10
29663;DHT22;16578;53.266;7.920;2023-03-23T13:48:51;18.20;61.90
29663;DHT22;16578;53.266;7.920;2023-03-23T13:56:57;18.20;61.40
29663;DHT22;16578;53.266;7.920;2023-03-23T14:01:52;18.10;61.60
29663;DHT22;16578;53.266;7.920;2023-03-23T14:04:19;18.10;62.00
29663;DHT22;16578;53.266;7.920;2023-03-23T14:06:47;18.20;62.30
29663;DHT22;16578;53.266;7.920;2023-03-23T14:09:29;18.20;61.90
29663;DHT22;16578;53.266;7.920;2023-03-23T14:12:02;18.30;61.00
29663;DHT22;16578;53.266;7.920;2023-03-23T14:14:42;18.30;61.80
29663;DHT22;16578;53.266;7.920;2023-03-23T14:17:26;18.30;61.60
29663;DHT22;16578;53.266;7.920;2023-03-23T14:19:55;18.40;60.50
29663;DHT22;16578;53.266;7.920;2023-03-23T14:22:36;18.40;60.50
29663;DHT22;16578;53.266;7.920;2023-03-23T14:25:12;18.40;59.70
29663;DHT22;16578;53.266;7.920;2023-03-23T14:27:39;18.40;60.10
29663;DHT22;16578;53.266;7.920;2023-03-23T14:30:12;18.40;60.00
29663;DHT22;16578;53.266;7.920;2023-03-23T14:32:38;18.40;59.80
29663;DHT22;16578;53.266;7.920;2023-03-23T14:35:08;18.40;60.60
29663;DHT22;16578;53.266;7.920;2023-03-23T14:37:37;18.40;59.60
29663;DHT22;16578;53.266;7.920;2023-03-23T14:40:03;18.30;59.80
29663;DHT22;16578;53.266;7.920;2023-03-23T14:42:33;18.30;59.70
29663;DHT22;16578;53.266;7.920;2023-03-23T14:45:00;18.30;59.60
29663;DHT22;16578;53.266;7.920;2023-03-23T14:47:38;18.30;59.80
29663;DHT22;16578;53.266;7.920;2023-03-23T14:50:18;18.30;59.30
29663;DHT22;16578;53.266;7.920;2023-03-23T14:52:47;18.20;59.60
29663;DHT22;16578;53.266;7.920;2023-03-23T14:55:19;18.20;59.50
29663;DHT22;16578;53.266;7.920;2023-03-23T14:57:46;18.20;59.40
29663;DHT22;16578;53.266;7.920;2023-03-23T15:00:20;18.20;59.50
29663;DHT22;16578;53.266;7.920;2023-03-23T15:02:49;18.20;59.30
29663;DHT22;16578;53.266;7.920;2023-03-23T15:05:54;18.20;59.40
29663;DHT22;16578;53.266;7.920;2023-03-23T15:08:24;18.20;59.50
29663;DHT22;16578;53.266;7.920;2023-03-23T15:11:13;18.20;59.70
29663;DHT22;16578;53.266;7.920;2023-03-23T15:13:48;18.20;59.60
29663;DHT22;16578;53.266;7.920;2023-03-23T15:16:19;18.20;59.80
29663;DHT22;16578;53.266;7.920;2023-03-23T15:19:11;18.30;59.60
29663;DHT22;16578;53.266;7.920;2023-03-23T15:22:03;18.30;59.50
29663;DHT22;16578;53.266;7.920;2023-03-23T15:24:40;18.20;59.40
29663;DHT22;16578;53.266;7.920;2023-03-23T15:27:24;18.20;59.30
29663;DHT22;16578;53.266;7.920;2023-03-23T15:29:53;18.20;59.30
29663;DHT22;16578;53.266;7.920;2023-03-23T15:32:30;18.20;59.40
29663;DHT22;16578;53.266;7.920;2023-03-23T15:34:57;18.20;59.30
29663;DHT22;16578;53.266;7.920;2023-03-23T15:37:30;18.20;59.30
29663;DHT22;16578;53.266;7.920;2023-03-23T15:39:57;18.10;59.40
29663;DHT22;16578;53.266;7.920;2023-03-23T15:42:26;18.10;59.50
29663;DHT22;16578;53.266;7.920;2023-03-23T15:52:51;18.10;61.10
29663;DHT22;16578;53.266;7.920;2023-03-23T15:55:28;18.10;61.50
29663;DHT22;16578;53.266;7.920;2023-03-23T15:57:56;18.10;61.10
29663;DHT22;16578;53.266;7.920;2023-03-23T16:00:24;18.10;61.10
29663;DHT22;16578;53.266;7.920;2023-03-23T16:02:54;18.10;60.90
29663;DHT22;16578;53.266;7.920;2023-03-23T16:05:20;17.90;61.40
29663;DHT22;16578;53.266;7.920;2023-03-23T16:07:46;17.90;61.00
29663;DHT22;16578;53.266;7.920;2023-03-23T16:10:18;18.00;60.80
29663;DHT22;16578;53.266;7.920;2023-03-23T16:12:44;18.00;60.50
29663;DHT22;16578;53.266;7.920;2023-03-23T16:15:11;17.90;60.70
29663;DHT22;16578;53.266;7.920;2023-03-23T16:17:37;17.80;60.60
29663;DHT22;16578;53.266;7.920;2023-03-23T16:20:16;17.80;60.50
29663;DHT22;16578;53.266;7.920;2023-03-23T16:22:42;17.70;60.30
29663;DHT22;16578;53.266;7.920;2023-03-23T16:25:08;17.70;60.60
29663;DHT22;16578;53.266;7.920;2023-03-23T16:27:36;17.60;60.40
29663;DHT22;16578;53.266;7.920;2023-03-23T16:30:31;17.60;60.50
29663;DHT22;16578;53.266;7.920;2023-03-23T16:32:54;17.50;60.20
29663;DHT22;16578;53.266;7.920;2023-03-23T16:35:21;17.40;60.60
29663;DHT22;16578;53.266;7.920;2023-03-23T16:37:51;17.40;60.60
29663;DHT22;16578;53.266;7.920;2023-03-23T16:40:18;17.40;60.60
29663;DHT22;16578;53.266;7.920;2023-03-23T16:42:44;17.30;60.60
29663;DHT22;16578;53.266;7.920;2023-03-23T16:45:11;17.20;60.70
29663;DHT22;16578;53.266;7.920;2023-03-23T16:47:37;17.20;60.70
29663;DHT22;16578;53.266;7.920;2023-03-23T16:50:05;17.20;60.90
29663;DHT22;16578;53.266;7.920;2023-03-23T16:52:31;17.10;60.80
29663;DHT22;16578;53.266;7.920;2023-03-23T16:54:57;17.10;61.00
29663;DHT22;16578;53.266;7.920;2023-03-23T16:57:23;17.00;61.10
29663;DHT22;16578;53.266;7.920;2023-03-23T16:59:48;17.00;61.20
29663;DHT22;16578;53.266;7.920;2023-03-23T17:02:14;17.00;61.40
29663;DHT22;16578;53.266;7.920;2023-03-23T17:04:44;16.90;61.50
29663;DHT22;16578;53.266;7.920;2023-03-23T17:07:11;16.90;61.60
29663;DHT22;16578;53.266;7.920;2023-03-23T17:09:37;16.90;61.70
29663;DHT22;16578;53.266;7.920;2023-03-23T17:12:03;16.90;61.70
29663;DHT22;16578;53.266;7.920;2023-03-23T17:14:29;16.90;61.80
29663;DHT22;16578;53.266;7.920;2023-03-23T17:16:54;16.80;61.80
29663;DHT22;16578;53.266;7.920;2023-03-23T17:19:21;16.80;61.90